createdAt,value
2022-11-16T00:01:07.901Z,36.60
2022-11-16T00:03:35.995Z,33.40
2022-11-16T00:06:04.839Z,25.20
2022-11-16T00:08:34.060Z,21.23
2022-11-16T00:11:06.201Z,30.10
2022-11-16T00:13:33.248Z,33.43
2022-11-16T00:16:00.140Z,38.40
2022-11-16T00:18:27.027Z,29.10
2022-11-16T00:20:54.371Z,32.13
2022-11-16T00:23:21.447Z,26.97
2022-11-16T00:25:48.505Z,27.43
2022-11-16T00:28:15.549Z,28.33
2022-11-16T00:30:42.231Z,24.40
2022-11-16T00:33:14.065Z,27.50
2022-11-16T00:35:41.056Z,31.57
2022-11-16T00:38:08.403Z,31.63
2022-11-16T00:40:35.267Z,35.17
2022-11-16T00:43:01.828Z,21.17
2022-11-16T00:45:28.380Z,34.77
2022-11-16T00:48:00.178Z,35.37
2022-11-16T00:50:27.237Z,34.27
2022-11-16T00:52:53.929Z,27.33
2022-11-16T00:55:21.204Z,18.10
2022-11-16T00:57:47.844Z,33.20
2022-11-16T01:00:15.425Z,30.10
2022-11-16T01:02:42.336Z,35.07
2022-11-16T01:05:10.212Z,26.20
2022-11-16T01:07:38.124Z,31.23
2022-11-16T01:10:05.199Z,29.07
2022-11-16T01:12:32.446Z,33.93
2022-11-16T01:14:59.680Z,21.63
2022-11-16T01:17:26.541Z,25.80
2022-11-16T01:19:54.333Z,36.63
2022-11-16T01:22:21.805Z,26.20
2022-11-16T01:24:48.625Z,33.07
2022-11-16T01:27:15.479Z,32.93
2022-11-16T01:29:42.760Z,24.03
2022-11-16T01:32:09.831Z,30.53
2022-11-16T01:34:36.620Z,27.77
2022-11-16T01:37:04.009Z,25.50
2022-11-16T01:39:31.329Z,23.97
2022-11-16T01:41:58.233Z,28.03
2022-11-16T01:45:07.989Z,28.47
2022-11-16T01:47:38.257Z,36.93
2022-11-16T01:50:22.007Z,33.80
2022-11-16T01:52:54.192Z,30.07
2022-11-16T01:55:23.649Z,33.40
2022-11-16T01:57:50.701Z,27.50
2022-11-16T02:00:18.800Z,29.50
2022-11-16T02:03:00.610Z,31.47
2022-11-16T02:05:51.894Z,31.53
2022-11-16T02:08:52.443Z,27.20
2022-11-16T02:11:43.356Z,25.83
2022-11-16T02:14:24.438Z,25.70
2022-11-16T02:16:59.783Z,32.30
2022-11-16T02:19:59.566Z,32.40
2022-11-16T02:22:38.936Z,32.97
2022-11-16T02:25:12.623Z,19.90
2022-11-16T02:28:00.968Z,17.13
2022-11-16T02:30:30.794Z,21.03
2022-11-16T02:33:02.645Z,25.60
2022-11-16T02:35:36.246Z,28.30
2022-11-16T02:38:07.833Z,29.13
2022-11-16T02:40:43.143Z,27.23
2022-11-16T02:43:14.485Z,30.63
2022-11-16T02:45:48.455Z,31.77
2022-11-16T02:48:21.111Z,32.37
2022-11-16T02:50:51.980Z,31.47
2022-11-16T02:53:22.181Z,17.57
2022-11-16T02:55:49.168Z,32.23
2022-11-16T02:58:19.876Z,25.60
2022-11-16T03:00:54.932Z,27.10
2022-11-16T03:03:29.363Z,17.77
2022-11-16T03:06:01.547Z,12.67
2022-11-16T03:08:31.293Z,28.80
2022-11-16T03:11:19.314Z,24.17
2022-11-16T03:13:47.340Z,27.63
2022-11-16T03:16:20.484Z,22.77
2022-11-16T03:18:49.790Z,25.80
2022-11-16T03:21:21.607Z,32.30
2022-11-16T03:23:51.284Z,21.83
2022-11-16T03:26:24.177Z,22.93
2022-11-16T03:28:58.078Z,34.90
2022-11-16T03:31:30.247Z,17.43
2022-11-16T03:34:02.080Z,41.20
2022-11-16T03:36:33.240Z,22.73
2022-11-16T03:39:05.319Z,35.43
2022-11-16T03:41:34.701Z,35.50
2022-11-16T03:44:01.572Z,25.23
2022-11-16T03:46:29.054Z,42.03
2022-11-16T03:49:00.487Z,36.17
2022-11-16T03:51:28.131Z,43.83
2022-11-16T03:53:55.080Z,32.53
2022-11-16T03:56:21.974Z,43.47
2022-11-16T03:58:48.892Z,41.33
2022-11-16T04:01:15.837Z,45.93
2022-11-16T04:03:48.592Z,41.20
2022-11-16T04:06:33.822Z,49.63
2022-11-16T04:09:18.985Z,42.90
2022-11-16T04:12:04.151Z,46.37
2022-11-16T04:14:49.704Z,20.27
2022-11-16T04:17:36.529Z,36.23
2022-11-16T04:20:22.868Z,38.67
2022-11-16T04:23:12.519Z,23.63
2022-11-16T04:25:41.453Z,31.20
2022-11-16T04:28:13.736Z,40.97
2022-11-16T04:30:59.417Z,40.10
2022-11-16T04:33:44.997Z,37.20
2022-11-16T04:36:30.322Z,34.83
2022-11-16T04:38:56.852Z,23.53
2022-11-16T04:41:38.465Z,39.63
2022-11-16T04:44:06.265Z,38.03
2022-11-16T04:46:51.517Z,33.53
2022-11-16T04:49:18.105Z,24.07
2022-11-16T04:51:45.339Z,43.70
2022-11-16T04:54:12.214Z,33.60
2022-11-16T04:56:38.818Z,40.60
2022-11-16T04:59:05.685Z,37.90
2022-11-16T05:01:49.717Z,26.20
2022-11-16T05:04:16.407Z,40.70
2022-11-16T05:06:46.172Z,30.53
2022-11-16T05:09:14.051Z,36.20
2022-11-16T05:11:40.657Z,30.33
2022-11-16T05:14:09.025Z,35.97
2022-11-16T05:16:35.894Z,40.00
2022-11-16T05:19:21.136Z,21.33
2022-11-16T05:21:48.070Z,45.20
2022-11-16T05:24:33.599Z,42.17
2022-11-16T05:27:00.577Z,26.60
2022-11-16T05:29:27.252Z,32.53
2022-11-16T05:31:53.803Z,42.57
2022-11-16T05:34:20.756Z,40.80
2022-11-16T05:36:47.383Z,34.67
2022-11-16T05:39:15.234Z,43.10
2022-11-16T05:41:42.120Z,39.77
2022-11-16T05:44:08.799Z,46.43
2022-11-16T05:46:35.468Z,47.90
2022-11-16T05:49:02.245Z,30.80
2022-11-16T05:51:28.993Z,45.33
2022-11-16T05:53:55.847Z,46.90
2022-11-16T05:56:23.236Z,31.73
2022-11-16T05:58:49.912Z,49.73
2022-11-16T06:01:16.568Z,44.40
2022-11-16T06:03:45.894Z,49.47
2022-11-16T06:06:12.642Z,38.07
2022-11-16T06:08:39.392Z,43.57
2022-11-16T06:11:08.296Z,45.17
2022-11-16T06:13:36.187Z,46.87
2022-11-16T06:16:03.845Z,47.47
2022-11-16T06:18:33.563Z,40.67
2022-11-16T06:21:00.451Z,38.47
2022-11-16T06:23:27.194Z,47.73
2022-11-16T06:25:54.528Z,47.67
2022-11-16T06:28:21.349Z,43.27
2022-11-16T06:30:48.811Z,46.13
2022-11-16T06:33:16.068Z,42.70
2022-11-16T06:35:42.931Z,47.73
2022-11-16T06:38:09.927Z,47.70
2022-11-16T06:40:37.954Z,35.30
2022-11-16T06:43:05.132Z,40.13
2022-11-16T06:45:31.780Z,40.10
2022-11-16T06:47:58.997Z,34.57
2022-11-16T06:50:25.590Z,43.83
2022-11-16T06:52:53.259Z,45.80
2022-11-16T06:55:20.993Z,47.33
2022-11-16T06:57:47.918Z,38.70
2022-11-16T07:00:17.078Z,43.63
2022-11-16T07:02:43.611Z,44.13
2022-11-16T07:05:10.845Z,35.37
2022-11-16T07:07:37.780Z,38.67
2022-11-16T07:10:05.284Z,39.70
2022-11-16T07:12:31.838Z,43.77
2022-11-16T07:14:58.721Z,43.87
2022-11-16T07:17:25.266Z,40.47
2022-11-16T07:19:51.792Z,44.47
2022-11-16T07:22:19.023Z,35.53
2022-11-16T07:24:45.623Z,46.10
2022-11-16T07:27:12.215Z,44.30
2022-11-16T07:29:39.495Z,39.43
2022-11-16T07:32:06.186Z,32.37
2022-11-16T07:34:32.743Z,42.30
2022-11-16T07:37:00.586Z,45.80
2022-11-16T07:39:28.063Z,41.30
2022-11-16T07:41:54.994Z,36.80
2022-11-16T07:44:21.885Z,36.73
2022-11-16T07:46:49.081Z,31.77
2022-11-16T07:49:18.646Z,36.50
2022-11-16T07:51:46.047Z,31.67
2022-11-16T07:54:15.049Z,43.73
2022-11-16T07:56:42.654Z,33.67
2022-11-16T07:59:10.425Z,42.50
2022-11-16T08:01:41.164Z,37.47
2022-11-16T08:04:10.012Z,42.33
2022-11-16T08:06:40.251Z,32.50
2022-11-16T08:09:10.326Z,32.70
2022-11-16T08:11:37.412Z,42.20
2022-11-16T08:14:06.272Z,31.83
2022-11-16T08:16:33.388Z,25.77
2022-11-16T08:19:01.539Z,36.47
2022-11-16T08:21:29.043Z,21.07
2022-11-16T08:23:58.655Z,31.83
2022-11-16T08:26:26.375Z,27.73
2022-11-16T08:28:55.004Z,24.83
2022-11-16T08:31:24.535Z,29.27
2022-11-16T08:33:51.793Z,32.03
2022-11-16T08:36:18.906Z,26.60
2022-11-16T08:38:46.745Z,20.03
2022-11-16T08:41:13.879Z,32.73
2022-11-16T08:43:40.978Z,19.33
2022-11-16T08:46:10.669Z,31.20
2022-11-16T08:48:38.637Z,24.20
2022-11-16T08:51:17.400Z,30.57
2022-11-16T08:53:48.812Z,20.30
2022-11-16T08:56:17.416Z,18.80
2022-11-16T08:58:46.093Z,20.27
2022-11-16T09:01:15.709Z,26.60
2022-11-16T09:03:43.285Z,21.73
2022-11-16T09:06:11.165Z,15.30
2022-11-16T09:08:39.705Z,30.77
2022-11-16T09:11:09.764Z,14.10
2022-11-16T09:13:36.558Z,22.90
2022-11-16T09:16:04.537Z,23.37
2022-11-16T09:18:31.844Z,21.87
2022-11-16T09:20:59.514Z,26.67
2022-11-16T09:23:26.551Z,18.07
2022-11-16T09:25:55.821Z,18.20
2022-11-16T09:28:22.595Z,21.00
2022-11-16T09:30:50.725Z,14.57
2022-11-16T09:33:17.878Z,16.13
2022-11-16T09:35:44.729Z,17.03
2022-11-16T09:38:16.145Z,19.83
2022-11-16T09:40:47.590Z,12.30
2022-11-16T09:43:27.022Z,10.23
2022-11-16T09:46:04.727Z,9.87
2022-11-16T09:48:33.688Z,12.77
2022-11-16T09:51:07.514Z,15.40
2022-11-16T09:53:40.193Z,17.47
2022-11-16T09:56:10.724Z,17.63
2022-11-16T09:58:42.496Z,15.23
2022-11-16T10:01:21.522Z,10.27
2022-11-16T10:03:53.030Z,15.97
2022-11-16T10:06:22.983Z,10.97
2022-11-16T10:08:53.180Z,17.90
2022-11-16T10:11:32.041Z,10.93
2022-11-16T10:14:13.883Z,21.17
2022-11-16T10:16:48.257Z,19.50
2022-11-16T10:19:22.684Z,14.10
2022-11-16T10:21:57.827Z,10.97
2022-11-16T10:24:33.366Z,18.77
2022-11-16T10:27:21.837Z,11.10
2022-11-16T10:30:03.301Z,16.93
2022-11-16T10:32:32.696Z,9.47
2022-11-16T10:35:05.928Z,17.53
2022-11-16T10:37:36.246Z,16.27
2022-11-16T10:40:18.363Z,10.27
2022-11-16T10:42:51.606Z,11.53
2022-11-16T10:45:23.131Z,8.43
2022-11-16T10:47:53.505Z,13.60
2022-11-16T10:50:32.698Z,12.33
2022-11-16T10:53:02.232Z,10.17
2022-11-16T10:55:31.607Z,11.10
2022-11-16T10:58:00.122Z,12.70
2022-11-16T11:00:36.020Z,11.13
2022-11-16T11:03:03.193Z,17.33
2022-11-16T11:05:30.464Z,17.40
2022-11-16T11:08:02.049Z,19.83
2022-11-16T11:10:33.892Z,13.90
2022-11-16T11:13:27.426Z,11.40
2022-11-16T11:16:14.670Z,18.53
2022-11-16T11:18:42.178Z,13.67
2022-11-16T11:21:18.159Z,19.90
2022-11-16T11:23:47.400Z,11.93
2022-11-16T11:26:34.701Z,16.00
2022-11-16T11:29:18.261Z,20.50
2022-11-16T11:31:49.603Z,21.33
2022-11-16T11:34:20.194Z,13.43
2022-11-16T11:36:50.029Z,11.00
2022-11-16T11:39:32.181Z,9.63
2022-11-16T11:42:05.437Z,17.83
2022-11-16T11:44:41.108Z,14.53
2022-11-16T11:50:16.386Z,11.30
2022-11-16T11:52:50.361Z,18.77
2022-11-16T11:55:18.223Z,20.70
2022-11-16T11:57:49.637Z,10.97
2022-11-16T12:00:17.632Z,22.33
2022-11-16T12:03:09.844Z,21.00
2022-11-16T12:06:01.741Z,22.67
2022-11-16T12:08:42.493Z,16.00
2022-11-16T12:11:21.740Z,19.20
2022-11-16T12:14:09.386Z,22.07
2022-11-16T12:16:40.787Z,10.17
2022-11-16T12:19:27.139Z,21.17
2022-11-16T12:22:06.152Z,20.70
2022-11-16T12:24:58.676Z,19.87
2022-11-16T12:27:37.112Z,13.50
2022-11-16T12:30:13.116Z,15.27
2022-11-16T12:33:00.211Z,13.17
2022-11-16T12:35:40.041Z,18.57
2022-11-16T12:38:37.492Z,18.53
2022-11-16T12:41:41.830Z,16.03
2022-11-16T12:44:22.104Z,19.27
2022-11-16T12:46:58.726Z,12.33
2022-11-16T12:49:57.901Z,15.93
2022-11-16T12:52:36.900Z,10.53
2022-11-16T12:55:26.464Z,17.40
2022-11-16T12:58:07.139Z,18.27
2022-11-16T13:00:47.551Z,14.20
2022-11-16T13:03:20.828Z,8.73
2022-11-16T13:05:56.233Z,16.93
2022-11-16T13:08:37.651Z,15.80
2022-11-16T13:11:13.243Z,19.53
2022-11-16T13:13:42.013Z,17.77
2022-11-16T13:16:10.152Z,17.90
2022-11-16T13:18:41.212Z,18.63
2022-11-16T13:21:18.209Z,12.37
2022-11-16T13:23:55.206Z,14.27
2022-11-16T13:26:27.863Z,17.97
2022-11-16T13:29:00.359Z,13.47
2022-11-16T13:31:32.251Z,14.57
2022-11-16T13:34:03.189Z,9.53
2022-11-16T13:36:44.511Z,11.40
2022-11-16T13:39:18.709Z,16.73
2022-11-16T13:41:50.423Z,10.17
2022-11-16T13:44:28.877Z,9.50
2022-11-16T13:47:03.431Z,10.13
2022-11-16T13:49:49.265Z,11.23
2022-11-16T13:52:26.372Z,15.60
2022-11-16T13:55:12.693Z,11.37
2022-11-16T13:57:47.181Z,16.83
2022-11-16T14:00:22.439Z,9.17
2022-11-16T14:03:09.079Z,15.63
2022-11-16T14:05:40.884Z,14.97
2022-11-16T14:08:46.674Z,13.83
2022-11-16T14:11:43.603Z,11.37
2022-11-16T14:14:12.064Z,14.47
2022-11-16T14:16:49.032Z,14.70
2022-11-16T14:19:54.988Z,14.73
2022-11-16T14:22:52.828Z,14.50
2022-11-16T14:25:31.461Z,14.17
2022-11-16T14:28:11.568Z,12.37
2022-11-16T14:30:51.807Z,13.87
2022-11-16T14:33:29.867Z,12.33
2022-11-16T14:35:56.827Z,6.17
2022-11-16T14:38:31.192Z,11.07
2022-11-16T14:40:59.931Z,7.70
2022-11-16T14:43:32.838Z,11.47
2022-11-16T14:46:03.921Z,11.83
2022-11-16T14:48:31.284Z,13.73
2022-11-16T14:51:03.823Z,14.00
2022-11-16T14:53:33.843Z,12.47
2022-11-16T14:56:09.860Z,13.93
2022-11-16T14:58:37.602Z,11.60
2022-11-16T15:01:07.526Z,7.27
2022-11-16T15:03:40.435Z,9.90
2022-11-16T15:06:07.988Z,10.20
2022-11-16T15:08:41.950Z,6.07
2022-11-16T15:11:14.022Z,8.47
2022-11-16T15:13:45.697Z,12.20
2022-11-16T15:16:17.011Z,9.07
2022-11-16T15:18:56.449Z,9.73
2022-11-16T15:21:23.802Z,8.70
2022-11-16T15:24:15.631Z,10.90
2022-11-16T15:26:38.848Z,9.27
2022-11-16T15:29:05.486Z,4.77
2022-11-16T15:31:32.514Z,8.73
2022-11-16T15:33:59.452Z,7.80
2022-11-16T15:36:32.678Z,4.33
2022-11-16T15:39:02.360Z,5.20
2022-11-16T15:41:29.825Z,5.27
2022-11-16T15:44:14.122Z,7.63
2022-11-16T15:46:44.122Z,6.13
2022-11-16T15:49:22.259Z,6.80
2022-11-16T15:51:48.918Z,7.47
2022-11-16T15:54:24.259Z,4.70
2022-11-16T15:56:52.431Z,4.23
2022-11-16T15:59:25.147Z,7.43
2022-11-16T16:01:51.851Z,6.37
2022-11-16T16:04:19.166Z,5.40
2022-11-16T16:06:50.486Z,5.03
2022-11-16T16:09:31.465Z,5.73
2022-11-16T16:12:21.004Z,6.77
2022-11-16T16:14:52.360Z,9.50
2022-11-16T16:17:24.593Z,3.87
2022-11-16T16:19:55.377Z,7.63
2022-11-16T16:22:28.876Z,6.73
2022-11-16T16:24:56.398Z,6.23
2022-11-16T16:27:26.762Z,7.57
2022-11-16T16:29:55.057Z,6.17
2022-11-16T16:32:26.882Z,4.97
2022-11-16T16:34:58.925Z,8.17
2022-11-16T16:37:30.476Z,10.20
2022-11-16T16:39:58.576Z,6.30
2022-11-16T16:42:25.505Z,4.63
2022-11-16T16:44:52.126Z,4.17
2022-11-16T16:47:20.508Z,6.30
2022-11-16T16:49:49.993Z,8.17
2022-11-16T16:52:17.895Z,8.40
2022-11-16T16:54:44.529Z,5.37
2022-11-16T16:57:15.662Z,4.60
2022-11-16T16:59:44.347Z,7.77
2022-11-16T17:02:11.257Z,6.97
2022-11-16T17:04:37.903Z,9.97
2022-11-16T17:07:06.957Z,7.13
2022-11-16T17:09:40.855Z,9.73
2022-11-16T17:12:07.685Z,7.70
2022-11-16T17:14:36.579Z,7.23
2022-11-16T17:17:03.684Z,8.07
2022-11-16T17:19:30.831Z,9.30
2022-11-16T17:21:59.484Z,7.60
2022-11-16T17:24:26.151Z,5.77
2022-11-16T17:26:53.145Z,9.50
2022-11-16T17:29:19.830Z,5.73
2022-11-16T17:31:48.201Z,4.73
2022-11-16T17:34:15.305Z,8.30
2022-11-16T17:36:42.671Z,6.83
2022-11-16T17:39:10.124Z,9.07
2022-11-16T17:41:38.299Z,8.33
2022-11-16T17:44:06.267Z,6.30
2022-11-16T17:46:33.277Z,7.20
2022-11-16T17:49:02.524Z,7.93
2022-11-16T17:51:30.374Z,5.67
2022-11-16T17:53:59.794Z,8.40
2022-11-16T17:56:31.625Z,6.10
2022-11-16T17:59:00.909Z,4.10
2022-11-16T18:01:30.961Z,6.30
2022-11-16T18:03:57.981Z,3.57
2022-11-16T18:06:26.782Z,5.83
2022-11-16T18:08:55.690Z,7.33
2022-11-16T18:11:24.645Z,5.00
2022-11-16T18:13:53.245Z,5.53
2022-11-16T18:16:21.885Z,7.00
2022-11-16T18:18:49.671Z,8.10
2022-11-16T18:21:20.794Z,4.43
2022-11-16T18:23:49.355Z,7.37
2022-11-16T18:26:18.001Z,7.47
2022-11-16T18:28:44.855Z,4.70
2022-11-16T18:31:13.531Z,7.17
2022-11-16T18:33:40.516Z,3.47
2022-11-16T18:36:09.166Z,6.87
2022-11-16T18:38:36.853Z,3.20
2022-11-16T18:41:06.014Z,3.73
2022-11-16T18:43:34.055Z,6.37
2022-11-16T18:46:01.171Z,6.30
2022-11-16T18:48:27.821Z,5.23
2022-11-16T18:50:58.441Z,6.27
2022-11-16T18:53:25.370Z,4.07
2022-11-16T18:55:57.622Z,4.10
2022-11-16T19:01:20.011Z,2.03
2022-11-16T19:03:47.918Z,4.90
2022-11-16T19:06:17.207Z,4.87
2022-11-16T19:08:49.004Z,4.07
2022-11-16T19:11:18.983Z,2.13
2022-11-16T19:13:46.233Z,4.27
2022-11-16T19:16:13.444Z,3.97
2022-11-16T19:18:40.531Z,4.47
2022-11-16T19:21:09.307Z,4.60
2022-11-16T19:23:37.074Z,5.70
2022-11-16T19:26:06.835Z,4.33
2022-11-16T19:28:36.037Z,3.03
2022-11-16T19:31:08.524Z,4.47
2022-11-16T19:33:37.599Z,2.30
2022-11-16T19:36:10.274Z,3.80
2022-11-16T19:38:38.969Z,4.90
2022-11-16T19:41:06.375Z,5.33
2022-11-16T19:43:35.346Z,2.87
2022-11-16T19:46:03.471Z,4.37
2022-11-16T19:48:35.513Z,2.43
2022-11-16T19:51:07.910Z,2.53
2022-11-16T19:53:35.915Z,5.70
2022-11-16T19:56:06.313Z,2.93
2022-11-16T19:58:36.300Z,3.80
2022-11-16T20:01:03.952Z,4.40
2022-11-16T20:03:32.860Z,3.17
2022-11-16T20:06:07.976Z,4.87
2022-11-16T20:08:35.459Z,5.60
2022-11-16T20:11:02.604Z,5.13
2022-11-16T20:13:29.235Z,4.60
2022-11-16T20:15:56.127Z,5.63
2022-11-16T20:18:23.734Z,5.70
2022-11-16T20:20:54.680Z,6.37
2022-11-16T20:23:23.610Z,4.97
2022-11-16T20:25:50.824Z,4.53
2022-11-16T20:28:17.673Z,5.23
2022-11-16T20:30:49.485Z,6.10
2022-11-16T20:33:17.497Z,4.03
2022-11-16T20:35:44.187Z,2.90
2022-11-16T20:38:12.425Z,5.10
2022-11-16T20:40:39.178Z,4.30
2022-11-16T20:43:14.697Z,4.80
2022-11-16T20:45:41.299Z,5.83
2022-11-16T20:48:07.962Z,2.70
2022-11-16T20:50:35.031Z,3.63
2022-11-16T20:53:01.767Z,4.03
2022-11-16T20:55:43.713Z,3.67
2022-11-16T20:58:17.492Z,2.97
2022-11-16T21:00:49.926Z,3.27
2022-11-16T21:03:17.257Z,5.63
2022-11-16T21:05:45.559Z,4.07
2022-11-16T21:08:12.662Z,6.67
2022-11-16T21:10:40.234Z,6.37
2022-11-16T21:13:29.866Z,3.47
2022-11-16T21:16:04.589Z,4.00
2022-11-16T21:18:33.320Z,4.13
2022-11-16T21:21:01.178Z,3.93
2022-11-16T21:23:28.785Z,3.20
2022-11-16T21:26:01.109Z,4.13
2022-11-16T21:28:27.699Z,5.70
2022-11-16T21:31:05.761Z,6.30
2022-11-16T21:33:34.449Z,3.90
2022-11-16T21:36:05.403Z,4.77
2022-11-16T21:38:33.451Z,3.37
2022-11-16T21:41:05.522Z,5.17
2022-11-16T21:43:38.968Z,3.83
2022-11-16T21:46:10.756Z,6.23
2022-11-16T21:48:39.488Z,4.20
2022-11-16T21:51:08.855Z,5.27
2022-11-16T21:53:50.106Z,3.47
2022-11-16T21:56:23.165Z,2.93
2022-11-16T21:58:52.059Z,4.10
2022-11-16T22:01:20.226Z,2.60
2022-11-16T22:04:08.131Z,5.73
2022-11-16T22:06:53.929Z,5.40
2022-11-16T22:09:21.057Z,3.40
2022-11-16T22:11:49.086Z,4.17
2022-11-16T22:14:15.892Z,2.30
2022-11-16T22:16:42.824Z,4.40
2022-11-16T22:19:09.777Z,3.73
2022-11-16T22:21:39.006Z,4.97
2022-11-16T22:24:10.104Z,4.73
2022-11-16T22:26:39.153Z,4.00
2022-11-16T22:29:08.687Z,2.50
2022-11-16T22:31:36.375Z,4.97
2022-11-16T22:34:03.103Z,4.20
2022-11-16T22:36:30.004Z,3.73
2022-11-16T22:38:56.725Z,3.23
2022-11-16T22:41:23.316Z,3.67
2022-11-16T22:43:49.848Z,3.30
2022-11-16T22:46:17.136Z,6.30
2022-11-16T22:48:44.261Z,5.67
2022-11-16T22:51:19.312Z,6.87
2022-11-16T22:53:46.241Z,3.17
2022-11-16T22:56:13.438Z,4.90
2022-11-16T22:58:40.164Z,3.40
2022-11-16T23:01:08.478Z,3.23
2022-11-16T23:03:36.623Z,5.20
2022-11-16T23:06:05.051Z,3.83
2022-11-16T23:08:32.504Z,4.47
2022-11-16T23:11:19.019Z,3.87
2022-11-16T23:14:04.259Z,4.33
2022-11-16T23:16:31.172Z,5.37
2022-11-16T23:18:58.572Z,6.20
2022-11-16T23:21:43.260Z,3.90
2022-11-16T23:24:28.803Z,5.40
2022-11-16T23:27:14.330Z,3.17
2022-11-16T23:29:42.104Z,3.23
2022-11-16T23:32:08.982Z,3.60
2022-11-16T23:34:36.264Z,4.03
2022-11-16T23:37:03.233Z,4.10
2022-11-16T23:39:29.951Z,4.03
2022-11-16T23:42:15.579Z,4.80
2022-11-16T23:44:42.452Z,2.40
2022-11-16T23:47:09.666Z,8.23
2022-11-16T23:49:36.994Z,3.30
2022-11-16T23:52:03.946Z,3.40
2022-11-16T23:54:30.712Z,5.07
2022-11-16T23:56:57.468Z,3.23
2022-11-16T23:59:24.008Z,7.27
